Lorton, Nebraska
Current Conditions -  °F | °C
As of 8:55 AM on Thursday 30 Oct 2014 (Local Time) from KAFK Reporting Station
Clear Clear  
Wind Chill: 40°   Ceiling: Unl
Heat Index: 44°   Visibility: 10mi
Dew Point: 35°   Wind: 8mph
Humidity: 70%   Direction: 320°NW
Pressure: 30.04"   Gusts: NA
Location:  40.6°N, 96.02°W
Report Text: KAFK 301355Z AUTO 32007KT 10SM CLR 07/02 A3004 RMK AO2 T00690018
Loading
Personal Weather Stations






























Interactive Weather Map
Tropical Storm Tracking
New forecast layout! Learn more

10-Day Weather Forecast

Advertisements
Track Severe Weather on mobile